Terminal Aerodrome Forecast
Issued by NWS

Home | Current Version | Previous Version | Text Only | Print | Product List | Glossary Off
Versions: 1 2 3 4 5 6 7 8 9 10 11 12 13 14 15 16 17 18

587
FTUS43 KICT 221722
TAFSLN
TAF
KSLN 221722Z 2218/2318 11011KT P6SM BKN040
     FM230000 13010KT P6SM OVC030
     FM230500 14011KT P6SM VCSH OVC020
     FM230900 14011KT 6SM BR OVC010
     FM231200 15013KT 4SM -DZ BR OVC005
     FM231500 17016G23KT P6SM OVC010=

USA.gov is the U.S. government's official web portal to all federal, state and local government web resources and services.